WXM80 ListenWXM80 Stop

You find our weather info also at:

UK Metoffice

WeatherCloud

Weather Underground

Northeastern Weather Network

AWEKAS

Citizen Weather Observer Program (CWOP)

HAMweather, WeatherForYou, PWS Weather


Weather Underground History page Text

Daily Summary for September 5, 2016 Units:  English    Metric   Both
« Previous Day
Next Day »
Daily Weekly Monthly Yearly Custom
  High: Low: Average:
Temperature: 82.1 °F 64.6 °F 72.3 °F
Dew Point: 65.1 °F 53.0 °F 58.2 °F
Humidity: 71 % 53 % 62 %
Wind Speed: 12.0 mph 2.2 mph 6.3 mph
Wind Gust: 22.0 mph - -
Wind:- - ENE
Pressure: 30.20 in 29.91 in -
Precipitation: 0.00 in    
Historical Graphs
 
 
Tabular Data for September 5, 2016
Time Temperature Dew Point Pressure Wind Wind Speed Wind Gust Humidity Rainfall Rate (Hourly)
00:01 69.5 °F 54.5 °F 30.20 in ENE 8.5 mph 11.5 mph 59 % 0.00 in
00:06 69.4 °F 54.4 °F 30.20 in East 5.5 mph 17.3 mph 59 % 0.00 in
00:11 69.4 °F 54.0 °F 30.20 in ENE 6.0 mph 10.4 mph 58 % 0.00 in
00:16 69.3 °F 54.4 °F 30.20 in ENE 4.4 mph 9.2 mph 59 % 0.00 in
00:21 69.2 °F 54.3 °F 30.20 in NE 5.4 mph 10.0 mph 59 % 0.00 in
00:26 69.1 °F 54.6 °F 30.20 in ENE 7.0 mph 12.7 mph 60 % 0.00 in
00:31 69.0 °F 53.6 °F 30.20 in ENE 7.6 mph 12.7 mph 58 % 0.00 in
00:36 69.0 °F 53.6 °F 30.20 in ENE 6.3 mph 10.4 mph 58 % 0.00 in
00:41 69.0 °F 53.1 °F 30.20 in ENE 6.4 mph 11.5 mph 57 % 0.00 in
00:46 69.0 °F 54.5 °F 30.20 in NNE 5.0 mph 9.2 mph 60 % 0.00 in
00:52 68.8 °F 54.3 °F 30.20 in NE 6.4 mph 11.5 mph 60 % 0.00 in
00:57 68.6 °F 53.7 °F 30.20 in NNE 7.1 mph 11.5 mph 59 % 0.00 in
01:02 68.5 °F 54.5 °F 30.20 in NNE 5.1 mph 9.2 mph 61 % 0.00 in
01:07 68.2 °F 54.2 °F 30.20 in NE 4.9 mph 9.2 mph 61 % 0.00 in
01:12 68.0 °F 54.0 °F 30.20 in NE 4.4 mph 11.5 mph 61 % 0.00 in
01:17 67.9 °F 54.4 °F 30.20 in NE 4.1 mph 5.8 mph 62 % 0.00 in
01:22 67.7 °F 54.2 °F 30.20 in ENE 4.7 mph 5.8 mph 62 % 0.00 in
01:27 67.6 °F 54.6 °F 30.20 in ENE 5.2 mph 10.4 mph 63 % 0.00 in
01:32 67.5 °F 55.3 °F 30.19 in NNE 5.5 mph 6.9 mph 65 % 0.00 in
01:37 67.4 °F 55.2 °F 30.20 in NNE 4.6 mph 10.4 mph 65 % 0.00 in
01:43 67.3 °F 55.5 °F 30.20 in East 4.9 mph 10.4 mph 66 % 0.00 in
01:48 67.1 °F 54.9 °F 30.19 in ENE 5.0 mph 6.9 mph 65 % 0.00 in
01:53 67.0 °F 54.0 °F 30.19 in North 4.4 mph 11.5 mph 63 % 0.00 in
01:58 67.0 °F 54.8 °F 30.19 in NE 3.6 mph 7.0 mph 65 % 0.00 in
02:03 66.9 °F 55.2 °F 30.19 in NE 4.7 mph 6.9 mph 66 % 0.00 in
02:08 66.8 °F 55.1 °F 30.19 in ENE 5.3 mph 10.4 mph 66 % 0.00 in
02:13 66.7 °F 54.6 °F 30.19 in NNE 3.5 mph 9.2 mph 65 % 0.00 in
02:18 66.6 °F 54.9 °F 30.19 in ENE 4.3 mph 6.9 mph 66 % 0.00 in
02:23 66.6 °F 55.3 °F 30.19 in NE 4.6 mph 5.8 mph 67 % 0.00 in
02:28 66.5 °F 55.6 °F 30.19 in NE 3.8 mph 9.2 mph 68 % 0.00 in
02:34 66.4 °F 55.1 °F 30.19 in ENE 4.8 mph 8.1 mph 67 % 0.00 in
02:39 66.3 °F 55.0 °F 30.18 in NNE 3.9 mph 8.1 mph 67 % 0.00 in
02:44 66.2 °F 55.3 °F 30.18 in NE 3.9 mph 8.1 mph 68 % 0.00 in
02:49 66.1 °F 55.6 °F 30.18 in NE 5.6 mph 9.2 mph 69 % 0.00 in
02:54 66.0 °F 55.5 °F 30.18 in NE 4.2 mph 10.4 mph 69 % 0.00 in
02:59 66.0 °F 55.5 °F 30.18 in East 5.4 mph 8.0 mph 69 % 0.00 in
03:04 65.9 °F 55.4 °F 30.18 in NE 4.7 mph 6.9 mph 69 % 0.00 in
03:09 65.9 °F 55.4 °F 30.18 in NE 3.4 mph 6.9 mph 69 % 0.00 in
03:14 65.8 °F 55.3 °F 30.18 in NE 3.6 mph 6.9 mph 69 % 0.00 in
03:19 65.8 °F 55.7 °F 30.18 in NNE 4.9 mph 9.2 mph 70 % 0.00 in
03:25 65.8 °F 56.1 °F 30.18 in NNE 3.7 mph 8.1 mph 71 % 0.00 in
03:30 65.7 °F 55.2 °F 30.18 in NE 4.0 mph 9.2 mph 69 % 0.00 in
03:35 65.8 °F 55.3 °F 30.18 in NNE 5.8 mph 10.4 mph 69 % 0.00 in
03:40 65.8 °F 55.3 °F 30.18 in NNE 5.7 mph 13.8 mph 69 % 0.00 in
03:45 65.8 °F 55.3 °F 30.18 in NE 5.5 mph 11.5 mph 69 % 0.00 in
03:50 65.8 °F 55.3 °F 30.19 in NE 6.1 mph 9.2 mph 69 % 0.00 in
03:55 65.9 °F 55.4 °F 30.19 in NE 5.4 mph 11.5 mph 69 % 0.00 in
04:14 65.8 °F 54.9 °F 30.18 in NNE 4.2 mph 14.0 mph 68 % 0.00 in
04:33 65.7 °F 54.8 °F 30.18 in North 9.0 mph 15.0 mph 68 % 0.00 in
04:38 65.6 °F 55.2 °F 30.18 in East 9.0 mph 9.2 mph 69 % 0.00 in
04:43 65.4 °F 55.7 °F 30.18 in North 5.4 mph 12.7 mph 71 % 0.00 in
04:48 65.2 °F 55.2 °F 30.18 in NNW 7.4 mph 13.8 mph 70 % 0.00 in
04:54 65.0 °F 55.4 °F 30.18 in NE 7.5 mph 11.5 mph 71 % 0.00 in
04:59 64.9 °F 55.3 °F 30.18 in NNE 9.3 mph 11.5 mph 71 % 0.00 in
05:04 64.7 °F 54.7 °F 30.18 in NNE 6.7 mph 11.5 mph 70 % 0.00 in
05:09 64.7 °F 55.1 °F 30.18 in NE 6.4 mph 9.2 mph 71 % 0.00 in
05:14 64.7 °F 55.1 °F 30.18 in NE 7.2 mph 12.7 mph 71 % 0.00 in
05:19 64.6 °F 55.0 °F 30.17 in NE 5.8 mph 11.5 mph 71 % 0.00 in
05:24 64.7 °F 55.1 °F 30.17 in NNE 9.3 mph 13.0 mph 71 % 0.00 in
05:29 64.7 °F 54.3 °F 30.17 in NNE 6.4 mph 10.4 mph 69 % 0.00 in
05:34 64.8 °F 54.4 °F 30.17 in NE 6.5 mph 11.5 mph 69 % 0.00 in
05:39 64.8 °F 55.2 °F 30.17 in ENE 6.9 mph 11.5 mph 71 % 0.00 in
05:45 64.8 °F 54.8 °F 30.17 in NNE 5.9 mph 11.5 mph 70 % 0.00 in
05:50 64.8 °F 54.0 °F 30.18 in NE 4.9 mph 9.2 mph 68 % 0.00 in
05:55 64.9 °F 54.5 °F 30.18 in NE 7.5 mph 11.5 mph 69 % 0.00 in
06:00 64.8 °F 54.0 °F 30.18 in NE 7.7 mph 11.5 mph 68 % 0.00 in
06:05 64.8 °F 54.0 °F 30.17 in NE 6.1 mph 12.7 mph 68 % 0.00 in
06:10 64.9 °F 54.1 °F 30.17 in NNE 9.1 mph 16.0 mph 68 % 0.00 in
06:15 64.8 °F 54.0 °F 30.17 in NE 6.1 mph 15.0 mph 68 % 0.00 in
06:20 64.8 °F 54.0 °F 30.17 in North 7.1 mph 11.5 mph 68 % 0.00 in
06:25 64.9 °F 54.1 °F 30.17 in North 10.8 mph 12.7 mph 68 % 0.00 in
06:30 64.8 °F 54.0 °F 30.17 in NNE 3.7 mph 6.9 mph 68 % 0.00 in
06:36 64.9 °F 54.0 °F 30.17 in NE 7.0 mph 16.0 mph 68 % 0.00 in
06:41 64.8 °F 54.0 °F 30.17 in NNE 7.0 mph 15.0 mph 68 % 0.00 in
06:46 64.8 °F 54.0 °F 30.17 in NNE 8.0 mph 13.0 mph 68 % 0.00 in
06:51 64.8 °F 54.0 °F 30.18 in NNE 8.0 mph 14.0 mph 68 % 0.00 in
06:56 64.8 °F 54.0 °F 30.19 in NNE 6.0 mph 14.0 mph 68 % 0.00 in
07:01 64.8 °F 53.6 °F 30.19 in North 6.6 mph 11.5 mph 67 % 0.00 in
07:06 64.8 °F 53.6 °F 30.19 in NNE 9.0 mph 15.0 mph 67 % 0.00 in
07:11 64.8 °F 53.6 °F 30.19 in NNE 7.0 mph 13.0 mph 67 % 0.00 in
07:16 64.7 °F 53.5 °F 30.19 in NNE 6.0 mph 12.0 mph 67 % 0.00 in
07:21 64.7 °F 53.1 °F 30.19 in NNE 5.0 mph 13.0 mph 66 % 0.00 in
07:26 64.7 °F 53.5 °F 30.19 in NNE 6.0 mph 13.0 mph 67 % 0.00 in
07:31 64.6 °F 53.0 °F 30.19 in NNE 6.0 mph 13.0 mph 66 % 0.00 in
07:36 64.6 °F 53.0 °F 30.19 in NNE 8.0 mph 12.0 mph 66 % 0.00 in
07:41 64.6 °F 53.0 °F 30.19 in NNE 7.0 mph 12.0 mph 66 % 0.00 in
07:46 64.7 °F 53.9 °F 30.20 in NNE 3.0 mph 10.0 mph 68 % 0.00 in
07:51 64.7 °F 53.9 °F 30.20 in NNE 6.0 mph 12.0 mph 68 % 0.00 in
07:56 64.7 °F 53.5 °F 30.20 in NNE 6.0 mph 10.0 mph 67 % 0.00 in
08:01 64.7 °F 53.9 °F 30.20 in NNE 2.7 mph 8.1 mph 68 % 0.00 in
08:06 64.8 °F 54.0 °F 30.20 in North 5.1 mph 8.1 mph 68 % 0.00 in
08:11 64.8 °F 53.6 °F 30.20 in NE 2.2 mph 4.0 mph 67 % 0.00 in
08:16 64.9 °F 53.7 °F 30.20 in NE 3.9 mph 5.8 mph 67 % 0.00 in
08:21 65.1 °F 53.9 °F 30.20 in ENE 5.3 mph 9.2 mph 67 % 0.00 in
08:26 65.2 °F 54.4 °F 30.20 in NNE 5.4 mph 6.0 mph 68 % 0.00 in
08:31 65.4 °F 53.7 °F 30.20 in NE 2.4 mph 5.0 mph 66 % 0.00 in
08:36 65.5 °F 54.2 °F 30.20 in NE 2.5 mph 4.6 mph 67 % 0.00 in
08:41 65.7 °F 54.0 °F 30.20 in NNE 3.3 mph 5.8 mph 66 % 0.00 in
08:47 65.9 °F 54.2 °F 30.20 in NNE 3.9 mph 8.1 mph 66 % 0.00 in
08:52 66.0 °F 54.7 °F 30.20 in NNW 3.3 mph 5.8 mph 67 % 0.00 in
08:57 66.1 °F 54.0 °F 30.20 in NE 3.3 mph 8.1 mph 65 % 0.00 in
09:02 66.2 °F 54.9 °F 30.19 in NE 4.8 mph 6.9 mph 67 % 0.00 in
09:07 66.3 °F 54.6 °F 30.19 in NNW 3.7 mph 9.2 mph 66 % 0.00 in
09:12 66.4 °F 54.7 °F 30.19 in NNE 4.9 mph 9.0 mph 66 % 0.00 in
09:17 66.5 °F 54.8 °F 30.19 in NE 4.8 mph 9.2 mph 66 % 0.00 in
09:22 66.5 °F 54.8 °F 30.18 in NNE 6.8 mph 12.7 mph 66 % 0.00 in
09:27 66.6 °F 54.9 °F 30.18 in NE 5.3 mph 10.0 mph 66 % 0.00 in
09:32 66.7 °F 54.6 °F 30.18 in NNE 3.2 mph 6.9 mph 65 % 0.00 in
09:38 66.7 °F 54.6 °F 30.18 in NNE 3.1 mph 10.4 mph 65 % 0.00 in
09:43 66.8 °F 54.7 °F 30.19 in North 3.7 mph 15.0 mph 65 % 0.00 in
09:48 67.0 °F 54.8 °F 30.19 in NE 3.0 mph 9.2 mph 65 % 0.00 in
09:53 67.1 °F 55.8 °F 30.18 in NNE 5.3 mph 10.4 mph 67 % 0.00 in
09:58 67.2 °F 55.0 °F 30.18 in NNE 5.4 mph 11.5 mph 65 % 0.00 in
10:03 67.3 °F 55.1 °F 30.19 in North 7.0 mph 9.2 mph 65 % 0.00 in
10:08 67.5 °F 55.7 °F 30.18 in North 4.1 mph 5.8 mph 66 % 0.00 in
10:13 67.6 °F 55.4 °F 30.18 in NNE 4.3 mph 10.4 mph 65 % 0.00 in
10:18 67.7 °F 55.1 °F 30.18 in NNE 6.1 mph 11.5 mph 64 % 0.00 in
10:23 67.8 °F 55.6 °F 30.18 in North 4.8 mph 6.0 mph 65 % 0.00 in
10:28 68.0 °F 55.8 °F 30.18 in North 3.3 mph 7.0 mph 65 % 0.00 in
10:34 68.1 °F 55.9 °F 30.18 in NE 4.3 mph 6.9 mph 65 % 0.00 in
10:39 68.4 °F 56.6 °F 30.18 in NNE 6.4 mph 10.4 mph 66 % 0.00 in
10:44 68.6 °F 55.9 °F 30.18 in North 6.8 mph 10.4 mph 64 % 0.00 in
10:49 68.7 °F 55.6 °F 30.17 in NNE 4.0 mph 11.5 mph 63 % 0.00 in
10:57 69.1 °F 56.4 °F 30.18 in NNE 6.0 mph 7.0 mph 64 % 0.00 in
11:02 69.3 °F 56.6 °F 30.17 in NE 4.7 mph 6.9 mph 64 % 0.00 in
11:07 69.5 °F 56.8 °F 30.17 in NNE 3.0 mph 8.1 mph 64 % 0.00 in
11:13 69.7 °F 56.5 °F 30.17 in NE 4.8 mph 11.5 mph 63 % 0.00 in
11:23 70.0 °F 57.3 °F 30.17 in North 5.2 mph 9.0 mph 64 % 0.00 in
11:28 70.2 °F 56.1 °F 30.16 in NNE 7.3 mph 11.5 mph 61 % 0.00 in
11:33 70.4 °F 57.6 °F 30.16 in North 4.1 mph 8.0 mph 64 % 0.00 in
11:38 70.7 °F 57.0 °F 30.15 in North 7.7 mph 11.5 mph 62 % 0.00 in
11:43 70.9 °F 56.8 °F 30.15 in NNW 7.2 mph 9.2 mph 61 % 0.00 in
11:48 71.3 °F 58.1 °F 30.15 in North 4.1 mph 5.8 mph 63 % 0.00 in
11:53 71.7 °F 57.5 °F 30.15 in North 6.8 mph 11.5 mph 61 % 0.00 in
11:58 72.2 °F 57.5 °F 30.14 in NNE 5.2 mph 9.2 mph 60 % 0.00 in
12:04 72.8 °F 57.6 °F 30.14 in NE 4.6 mph 6.9 mph 59 % 0.00 in
12:09 73.3 °F 58.6 °F 30.14 in North 4.7 mph 11.5 mph 60 % 0.00 in
12:15 74.0 °F 58.8 °F 30.13 in ENE 8.0 mph 8.1 mph 59 % 0.00 in
12:20 74.6 °F 58.4 °F 30.13 in NNE 6.7 mph 9.2 mph 57 % 0.00 in
12:25 75.2 °F 59.4 °F 30.13 in NNE 2.5 mph 5.8 mph 58 % 0.00 in
12:30 75.5 °F 59.2 °F 30.12 in NNE 3.1 mph 4.6 mph 57 % 0.00 in
12:35 75.4 °F 58.6 °F 30.11 in NNE 6.3 mph 10.4 mph 56 % 0.00 in
12:41 75.1 °F 58.3 °F 30.11 in NNE 5.0 mph 12.0 mph 56 % 0.00 in
12:46 74.6 °F 57.9 °F 30.10 in NNE 7.0 mph 12.0 mph 56 % 0.00 in
12:51 74.1 °F 58.4 °F 30.10 in North 5.2 mph 10.4 mph 58 % 0.00 in
12:56 74.0 °F 58.8 °F 30.10 in North 3.0 mph 9.0 mph 59 % 0.00 in
13:01 73.9 °F 58.7 °F 30.09 in North 4.3 mph 9.2 mph 59 % 0.00 in
13:06 74.0 °F 59.2 °F 30.09 in North 5.6 mph 10.4 mph 60 % 0.00 in
13:16 74.0 °F 58.3 °F 30.08 in North 5.6 mph 8.1 mph 58 % 0.00 in
13:21 74.0 °F 58.8 °F 30.08 in NNE 5.9 mph 11.5 mph 59 % 0.00 in
13:26 74.1 °F 58.9 °F 30.07 in NE 6.5 mph 10.4 mph 59 % 0.00 in
13:31 74.3 °F 59.5 °F 30.07 in North 7.4 mph 10.0 mph 60 % 0.00 in
13:36 74.6 °F 59.8 °F 30.07 in North 4.4 mph 9.2 mph 60 % 0.00 in
13:41 75.0 °F 59.7 °F 30.07 in NNE 6.1 mph 11.5 mph 59 % 0.00 in
13:46 75.8 °F 61.8 °F 30.07 in North 4.9 mph 7.0 mph 62 % 0.00 in
13:52 76.6 °F 61.2 °F 30.06 in ENE 4.6 mph 11.5 mph 59 % 0.00 in
13:57 77.0 °F 61.1 °F 30.06 in NW 6.7 mph 13.8 mph 58 % 0.00 in
14:02 77.2 °F 60.3 °F 30.06 in North 6.5 mph 11.5 mph 56 % 0.00 in
14:07 77.3 °F 60.9 °F 30.05 in NNE 4.4 mph 9.2 mph 57 % 0.00 in
14:12 77.4 °F 61.0 °F 30.04 in North 8.3 mph 11.5 mph 57 % 0.00 in
14:17 77.5 °F 61.1 °F 30.04 in North 8.0 mph 12.0 mph 57 % 0.00 in
14:22 77.7 °F 61.7 °F 30.04 in NE 4.3 mph 11.5 mph 58 % 0.00 in
14:27 77.9 °F 61.4 °F 30.04 in North 8.0 mph 10.0 mph 57 % 0.00 in
14:32 78.1 °F 61.1 °F 30.04 in NNE 8.0 mph 13.8 mph 56 % 0.00 in
14:37 78.3 °F 61.8 °F 30.04 in NE 7.7 mph 11.5 mph 57 % 0.00 in
14:43 78.4 °F 61.9 °F 30.03 in North 5.7 mph 11.5 mph 57 % 0.00 in
14:48 78.4 °F 62.4 °F 30.03 in NNE 7.3 mph 13.8 mph 58 % 0.00 in
14:53 78.5 °F 61.5 °F 30.02 in North 7.0 mph 12.7 mph 56 % 0.00 in
14:58 78.5 °F 61.5 °F 30.02 in NNW 8.0 mph 12.7 mph 56 % 0.00 in
15:03 78.8 °F 62.3 °F 30.02 in North 7.5 mph 11.5 mph 57 % 0.00 in
15:13 79.8 °F 63.7 °F 30.01 in NNE 4.3 mph 11.5 mph 58 % 0.00 in
15:18 80.6 °F 64.5 °F 30.01 in North 6.9 mph 11.5 mph 58 % 0.00 in
15:23 81.2 °F 63.0 °F 30.01 in North 5.7 mph 10.4 mph 54 % 0.00 in
15:28 81.6 °F 63.9 °F 30.00 in NNE 5.4 mph 8.1 mph 55 % 0.00 in
15:34 81.9 °F 64.1 °F 30.00 in East 7.5 mph 8.1 mph 55 % 0.00 in
15:44 82.1 °F 63.8 °F 30.00 in North 5.8 mph 10.4 mph 54 % 0.00 in
15:49 82.1 °F 63.3 °F 29.99 in NE 7.8 mph 12.7 mph 53 % 0.00 in
15:54 81.8 °F 64.6 °F 29.99 in NNE 2.8 mph 4.6 mph 56 % 0.00 in
15:59 81.7 °F 65.0 °F 29.99 in NNE 3.7 mph 5.0 mph 57 % 0.00 in
16:04 81.4 °F 62.6 °F 29.99 in North 4.8 mph 11.5 mph 53 % 0.00 in
16:09 81.1 °F 62.9 °F 29.99 in North 7.5 mph 10.4 mph 54 % 0.00 in
16:14 80.8 °F 62.6 °F 29.99 in NNE 7.5 mph 11.5 mph 54 % 0.00 in
16:19 80.6 °F 64.5 °F 29.99 in NE 3.4 mph 9.2 mph 58 % 0.00 in
16:25 80.6 °F 63.5 °F 29.99 in ENE 8.4 mph 14.0 mph 56 % 0.00 in
16:30 80.7 °F 63.0 °F 29.98 in NNE 5.6 mph 11.5 mph 55 % 0.00 in
16:35 81.1 °F 63.4 °F 29.98 in NNE 7.5 mph 12.7 mph 55 % 0.00 in
16:40 81.5 °F 63.3 °F 29.97 in NE 10.5 mph 15.0 mph 54 % 0.00 in
16:45 81.7 °F 64.5 °F 29.97 in North 6.5 mph 11.5 mph 56 % 0.00 in
16:50 81.8 °F 65.1 °F 29.97 in NE 6.4 mph 10.4 mph 57 % 0.00 in
16:55 81.8 °F 64.6 °F 29.97 in NNE 7.2 mph 10.4 mph 56 % 0.00 in
17:00 81.6 °F 63.9 °F 29.97 in NE 5.9 mph 9.2 mph 55 % 0.00 in
17:05 81.3 °F 64.1 °F 29.97 in NE 6.6 mph 8.1 mph 56 % 0.00 in
17:10 81.3 °F 64.6 °F 29.97 in North 3.6 mph 5.8 mph 57 % 0.00 in
17:16 81.4 °F 64.7 °F 29.98 in NNE 5.0 mph 8.0 mph 57 % 0.00 in
17:21 81.5 °F 64.8 °F 29.98 in NE 3.0 mph 7.0 mph 57 % 0.00 in
17:26 81.5 °F 64.3 °F 29.97 in NNE 6.0 mph 13.0 mph 56 % 0.00 in
17:31 81.5 °F 62.7 °F 29.98 in NE 8.0 mph 14.0 mph 53 % 0.00 in
17:41 81.5 °F 63.8 °F 29.98 in NNE 3.0 mph 9.0 mph 55 % 0.00 in
17:46 81.6 °F 64.3 °F 29.98 in NNE 5.0 mph 12.0 mph 56 % 0.00 in
17:51 81.5 °F 64.3 °F 29.97 in NNE 5.0 mph 12.0 mph 56 % 0.00 in
17:56 81.4 °F 64.2 °F 29.97 in NNE 7.0 mph 12.0 mph 56 % 0.00 in
18:01 81.2 °F 65.0 °F 29.97 in NNE 4.8 mph 9.2 mph 58 % 0.00 in
18:06 81.0 °F 64.3 °F 29.97 in NNE 5.1 mph 9.0 mph 57 % 0.00 in
18:11 80.8 °F 64.6 °F 29.97 in NNE 6.9 mph 10.4 mph 58 % 0.00 in
18:16 80.5 °F 64.4 °F 29.97 in NE 6.3 mph 11.5 mph 58 % 0.00 in
18:21 80.2 °F 65.1 °F 29.96 in NNE 4.3 mph 6.9 mph 60 % 0.00 in
18:26 80.0 °F 63.9 °F 29.96 in North 5.9 mph 8.1 mph 58 % 0.00 in
18:31 79.9 °F 63.8 °F 29.96 in North 5.7 mph 9.2 mph 58 % 0.00 in
18:36 79.8 °F 63.2 °F 29.96 in NE 4.2 mph 8.1 mph 57 % 0.00 in
18:41 79.7 °F 63.6 °F 29.96 in North 5.3 mph 7.0 mph 58 % 0.00 in
18:47 79.6 °F 63.5 °F 29.96 in NNE 6.5 mph 11.0 mph 58 % 0.00 in
18:52 79.5 °F 62.9 °F 29.96 in NE 9.0 mph 13.8 mph 57 % 0.00 in
18:57 79.3 °F 62.7 °F 29.95 in NNE 8.2 mph 13.8 mph 57 % 0.00 in
19:02 79.2 °F 62.1 °F 29.95 in NNE 8.4 mph 15.0 mph 56 % 0.00 in
19:07 79.1 °F 62.6 °F 29.95 in North 8.3 mph 11.0 mph 57 % 0.00 in
19:12 78.9 °F 62.9 °F 29.96 in NNE 5.6 mph 11.5 mph 58 % 0.00 in
19:17 78.8 °F 63.3 °F 29.95 in NNW 7.3 mph 11.5 mph 59 % 0.00 in
19:22 78.6 °F 62.6 °F 29.95 in NNE 7.8 mph 14.0 mph 58 % 0.00 in
19:27 78.4 °F 60.9 °F 29.94 in NNE 6.7 mph 15.0 mph 55 % 0.00 in
19:32 78.4 °F 60.9 °F 29.95 in NE 7.5 mph 11.5 mph 55 % 0.00 in
19:38 78.3 °F 61.3 °F 29.95 in NE 9.9 mph 12.7 mph 56 % 0.00 in
19:43 78.3 °F 61.8 °F 29.94 in NNE 4.0 mph 11.5 mph 57 % 0.00 in
19:53 78.0 °F 61.0 °F 29.95 in NNE 8.1 mph 12.0 mph 56 % 0.00 in
19:58 78.0 °F 62.0 °F 29.95 in NNE 6.3 mph 9.2 mph 58 % 0.00 in
20:03 77.8 °F 61.3 °F 29.95 in ENE 8.2 mph 11.5 mph 57 % 0.00 in
20:08 77.6 °F 61.2 °F 29.95 in NNE 5.2 mph 11.5 mph 57 % 0.00 in
20:13 77.3 °F 59.9 °F 29.95 in NNW 7.9 mph 12.0 mph 55 % 0.00 in
20:18 77.3 °F 59.9 °F 29.95 in NNE 9.6 mph 18.4 mph 55 % 0.00 in
20:23 77.4 °F 60.5 °F 29.95 in NE 6.5 mph 11.5 mph 56 % 0.00 in
20:29 77.4 °F 60.5 °F 29.95 in NNE 7.9 mph 12.7 mph 56 % 0.00 in
20:34 77.5 °F 60.6 °F 29.95 in North 8.7 mph 13.8 mph 56 % 0.00 in
20:39 77.5 °F 61.1 °F 29.95 in NNW 5.2 mph 11.5 mph 57 % 0.00 in
20:44 77.5 °F 60.6 °F 29.95 in NNE 7.0 mph 13.8 mph 56 % 0.00 in
20:49 77.5 °F 60.6 °F 29.95 in NNE 6.6 mph 10.4 mph 56 % 0.00 in
20:54 77.4 °F 60.5 °F 29.95 in NNE 4.8 mph 11.5 mph 56 % 0.00 in
20:59 77.4 °F 61.5 °F 29.95 in NE 5.9 mph 9.2 mph 58 % 0.00 in
21:04 77.3 °F 61.9 °F 29.95 in NNE 7.3 mph 11.5 mph 59 % 0.00 in
21:09 77.2 °F 60.8 °F 29.94 in NNE 7.4 mph 17.3 mph 57 % 0.00 in
21:14 77.2 °F 60.8 °F 29.94 in NNE 9.3 mph 18.4 mph 57 % 0.00 in
21:20 77.1 °F 61.2 °F 29.95 in North 7.3 mph 10.4 mph 58 % 0.00 in
21:25 77.0 °F 62.0 °F 29.94 in NNE 7.9 mph 11.5 mph 60 % 0.00 in
21:30 76.9 °F 61.5 °F 29.95 in North 8.5 mph 13.8 mph 59 % 0.00 in
21:35 76.9 °F 61.0 °F 29.95 in NNE 10.0 mph 16.1 mph 58 % 0.00 in
21:40 76.8 °F 60.9 °F 29.94 in NNE 10.3 mph 17.3 mph 58 % 0.00 in
21:45 76.7 °F 60.8 °F 29.94 in North 9.3 mph 15.0 mph 58 % 0.00 in
21:50 76.6 °F 61.2 °F 29.94 in NNE 8.8 mph 13.0 mph 59 % 0.00 in
21:55 76.4 °F 60.5 °F 29.94 in North 10.2 mph 17.0 mph 58 % 0.00 in
22:00 76.3 °F 59.9 °F 29.94 in NNW 10.1 mph 21.9 mph 57 % 0.00 in
22:05 76.2 °F 59.9 °F 29.94 in NE 8.9 mph 16.1 mph 57 % 0.00 in
22:11 76.2 °F 60.3 °F 29.94 in NNE 12.0 mph 16.0 mph 58 % 0.00 in
22:16 76.1 °F 60.3 °F 29.93 in NNE 9.0 mph 17.0 mph 58 % 0.00 in
22:21 76.1 °F 60.7 °F 29.93 in NNE 7.0 mph 20.0 mph 59 % 0.00 in
22:26 76.0 °F 60.2 °F 29.93 in NNE 12.0 mph 20.0 mph 58 % 0.00 in
22:31 75.9 °F 60.5 °F 29.93 in NNE 10.0 mph 15.0 mph 59 % 0.00 in
22:36 75.8 °F 60.0 °F 29.93 in NNE 12.0 mph 17.0 mph 58 % 0.00 in
22:41 75.8 °F 60.0 °F 29.93 in NNE 12.0 mph 22.0 mph 58 % 0.00 in
22:46 75.7 °F 59.9 °F 29.93 in NNE 12.0 mph 21.0 mph 58 % 0.00 in
22:51 75.6 °F 60.3 °F 29.93 in NNE 8.0 mph 16.0 mph 59 % 0.00 in
22:56 75.5 °F 59.7 °F 29.92 in NNE 10.0 mph 20.0 mph 58 % 0.00 in
23:01 75.4 °F 60.1 °F 29.92 in North 9.6 mph 19.6 mph 59 % 0.00 in
23:11 75.2 °F 60.4 °F 29.92 in North 10.5 mph 15.0 mph 60 % 0.00 in
23:16 75.1 °F 59.3 °F 29.92 in NNE 8.7 mph 15.0 mph 58 % 0.00 in
23:21 75.0 °F 60.2 °F 29.92 in ENE 11.3 mph 16.1 mph 60 % 0.00 in
23:26 75.0 °F 60.2 °F 29.92 in NNE 9.0 mph 13.8 mph 60 % 0.00 in
23:31 74.9 °F 59.6 °F 29.92 in NNE 8.2 mph 16.1 mph 59 % 0.00 in
23:36 74.9 °F 60.1 °F 29.92 in NE 10.9 mph 16.1 mph 60 % 0.00 in
23:41 74.9 °F 59.6 °F 29.92 in North 11.7 mph 20.7 mph 59 % 0.00 in
23:47 74.8 °F 59.5 °F 29.91 in North 11.1 mph 15.0 mph 59 % 0.00 in
23:52 74.8 °F 60.0 °F 29.91 in North 9.8 mph 16.1 mph 60 % 0.00 in
23:57 74.7 °F 59.9 °F 29.91 in NE 8.5 mph 15.0 mph 60 % 0.00 in
Crab Meadow Weather
Compliments of Weather Underground - 2.75 mb

Script developed by  Jim McMurry - jmcmurry@mwt.net Adapted for the template by  Wim van der Kuil - Leuven-Template.eu

Astronomy: It takes 16 million horsepower to break loose from the Earth's gravitational pull.